createdAt,value
2022-10-31T00:01:20.273Z,67.19
2022-10-31T00:04:21.699Z,67.72
2022-10-31T00:07:23.278Z,67.23
2022-10-31T00:10:24.826Z,66.59
2022-10-31T00:13:26.384Z,66.59
2022-10-31T00:16:28.776Z,66.99
2022-10-31T00:19:30.236Z,67.30
2022-10-31T00:22:31.602Z,66.66
2022-10-31T00:25:38.713Z,66.68
2022-10-31T00:28:40.120Z,66.76
2022-10-31T00:31:41.574Z,66.61
2022-10-31T00:34:43.038Z,66.71
2022-10-31T00:37:44.883Z,65.87
2022-10-31T00:40:46.625Z,66.17
2022-10-31T00:43:48.127Z,66.35
2022-10-31T00:46:49.642Z,66.51
2022-10-31T00:49:56.294Z,66.27
2022-10-31T00:52:58.887Z,66.51
2022-10-31T00:56:00.666Z,66.13
2022-10-31T00:59:02.124Z,65.81
2022-10-31T01:02:03.706Z,66.19
2022-10-31T01:05:05.727Z,66.33
2022-10-31T01:08:07.142Z,66.48
2022-10-31T01:11:15.093Z,66.54
2022-10-31T01:14:16.514Z,66.23
2022-10-31T01:17:18.044Z,66.04
2022-10-31T01:20:21.874Z,66.61
2022-10-31T01:23:23.292Z,66.71
2022-10-31T01:26:27.239Z,66.51
2022-10-31T01:29:28.900Z,66.66
2022-10-31T01:32:30.357Z,66.59
2022-10-31T01:35:33.499Z,66.78
2022-10-31T01:38:34.970Z,66.30
2022-10-31T01:41:39.856Z,66.74
2022-10-31T01:44:43.323Z,66.04
2022-10-31T01:47:48.097Z,66.38
2022-10-31T01:50:54.004Z,66.13
2022-10-31T01:54:00.718Z,66.47
2022-10-31T01:57:03.667Z,66.73
2022-10-31T02:00:09.661Z,66.50
2022-10-31T02:03:19.801Z,66.45
2022-10-31T02:06:38.459Z,66.50
2022-10-31T02:09:41.545Z,66.18
2022-10-31T02:12:43.914Z,66.11
2022-10-31T02:15:48.108Z,66.03
2022-10-31T02:18:49.864Z,66.47
2022-10-31T02:22:03.076Z,65.78
2022-10-31T02:25:12.264Z,66.84
2022-10-31T02:31:42.951Z,67.59
2022-10-31T02:34:59.245Z,66.72
2022-10-31T02:38:10.329Z,66.65
2022-10-31T02:41:22.707Z,66.60
2022-10-31T02:44:40.851Z,67.12
2022-10-31T02:47:43.598Z,67.48
2022-10-31T02:50:56.004Z,66.97
2022-10-31T02:53:57.525Z,66.89
2022-10-31T02:57:04.918Z,66.74
2022-10-31T03:00:09.184Z,66.86
2022-10-31T03:03:20.484Z,66.90
2022-10-31T03:06:28.887Z,66.88
2022-10-31T03:09:46.562Z,66.46
2022-10-31T03:12:59.298Z,67.24
2022-10-31T03:16:14.557Z,66.42
2022-10-31T03:19:31.075Z,67.27
2022-10-31T03:22:34.076Z,67.86
2022-10-31T03:25:37.405Z,67.92
2022-10-31T03:28:55.437Z,67.59
2022-10-31T03:32:02.686Z,67.38
2022-10-31T03:35:07.273Z,67.06
2022-10-31T03:38:10.446Z,67.01
2022-10-31T03:41:17.247Z,66.68
2022-10-31T03:44:23.010Z,66.30
2022-10-31T03:47:33.825Z,66.05
2022-10-31T03:50:46.749Z,66.82
2022-10-31T03:53:53.133Z,67.04
2022-10-31T03:57:11.756Z,66.67
2022-10-31T04:00:15.514Z,66.87
2022-10-31T04:03:35.374Z,66.46
2022-10-31T04:06:40.750Z,66.63
2022-10-31T04:09:45.667Z,67.47
2022-10-31T04:12:55.056Z,66.46
2022-10-31T04:16:00.025Z,66.51
2022-10-31T04:19:01.543Z,66.68
2022-10-31T04:22:03.232Z,67.97
2022-10-31T04:25:05.490Z,67.51
2022-10-31T04:28:06.949Z,67.19
2022-10-31T04:31:12.110Z,67.46
2022-10-31T04:34:14.177Z,67.17
2022-10-31T04:37:16.191Z,67.31
2022-10-31T04:40:17.619Z,67.41
2022-10-31T04:43:51.363Z,67.08
2022-10-31T04:46:52.792Z,66.86
2022-10-31T04:49:54.204Z,67.06
2022-10-31T04:52:56.514Z,68.07
2022-10-31T04:56:02.097Z,67.73
2022-10-31T04:59:12.010Z,67.98
2022-10-31T05:02:22.008Z,67.74
2022-10-31T05:05:32.065Z,67.23
2022-10-31T05:08:35.941Z,66.82
2022-10-31T05:11:40.535Z,67.01
2022-10-31T05:14:56.483Z,67.09
2022-10-31T05:18:36.027Z,67.25
2022-10-31T05:22:06.274Z,67.33
2022-10-31T05:25:08.841Z,67.70
2022-10-31T05:28:10.904Z,67.52
2022-10-31T05:31:12.582Z,67.17
2022-10-31T05:34:14.017Z,67.31
2022-10-31T05:37:41.067Z,68.09
2022-10-31T05:40:42.514Z,67.84
2022-10-31T05:43:44.617Z,67.13
2022-10-31T05:46:47.473Z,67.59
2022-10-31T05:50:10.531Z,67.67
2022-10-31T05:53:14.800Z,67.13
2022-10-31T05:56:16.274Z,67.78
2022-10-31T05:59:18.208Z,67.98
2022-10-31T06:02:20.574Z,67.57
2022-10-31T06:05:42.011Z,68.12
2022-10-31T06:08:44.127Z,67.97
2022-10-31T06:11:49.398Z,67.33
2022-10-31T06:14:59.753Z,67.38
2022-10-31T06:18:04.206Z,67.57
2022-10-31T06:21:11.528Z,68.09
2022-10-31T06:24:15.980Z,68.39
2022-10-31T06:27:29.303Z,69.26
2022-10-31T06:30:32.316Z,69.91
2022-10-31T06:33:34.951Z,68.50
2022-10-31T06:36:36.944Z,68.25
2022-10-31T06:39:39.166Z,68.22
2022-10-31T06:42:41.028Z,68.05
2022-10-31T06:45:44.074Z,68.47
2022-10-31T06:48:57.080Z,68.19
2022-10-31T06:52:10.069Z,69.13
2022-10-31T06:55:11.591Z,69.13
2022-10-31T06:58:20.491Z,68.19
2022-10-31T07:01:23.849Z,68.13
2022-10-31T07:04:25.458Z,68.69
2022-10-31T07:07:26.938Z,68.34
2022-10-31T07:10:32.175Z,68.35
2022-10-31T07:13:37.845Z,68.70
2022-10-31T07:16:42.089Z,68.44
2022-10-31T07:19:44.122Z,68.36
2022-10-31T07:22:50.571Z,68.57
2022-10-31T07:25:57.410Z,68.50
2022-10-31T07:29:01.111Z,68.84
2022-10-31T07:32:03.690Z,69.95
2022-10-31T07:35:07.900Z,68.82
2022-10-31T07:38:20.538Z,68.44
2022-10-31T07:41:22.461Z,68.68
2022-10-31T07:44:24.094Z,67.97
2022-10-31T07:47:28.236Z,68.07
2022-10-31T07:50:41.681Z,68.10
2022-10-31T07:54:02.016Z,67.68
2022-10-31T07:57:05.997Z,68.50
2022-10-31T08:00:10.247Z,67.49
2022-10-31T08:03:18.523Z,66.62
2022-10-31T08:06:38.460Z,66.21
2022-10-31T08:09:51.609Z,66.23
2022-10-31T08:13:01.958Z,65.75
2022-10-31T08:16:05.519Z,65.91
2022-10-31T08:19:10.791Z,65.10
2022-10-31T08:22:14.744Z,65.27
2022-10-31T08:25:16.206Z,65.07
2022-10-31T08:28:18.077Z,65.21
2022-10-31T08:31:22.392Z,63.68
2022-10-31T08:34:23.833Z,64.01
2022-10-31T08:37:43.932Z,63.54
2022-10-31T08:40:49.606Z,64.04
2022-10-31T08:43:51.104Z,64.63
2022-10-31T08:46:52.592Z,63.43
2022-10-31T08:49:57.143Z,63.84
2022-10-31T08:53:06.237Z,63.18
2022-10-31T08:56:08.969Z,63.30
2022-10-31T08:59:11.058Z,62.82
2022-10-31T09:02:44.196Z,63.36
2022-10-31T09:05:46.663Z,63.28
2022-10-31T09:08:48.248Z,62.34
2022-10-31T09:11:49.770Z,61.88
2022-10-31T09:15:09.754Z,62.36
2022-10-31T09:18:21.886Z,62.35
2022-10-31T09:21:33.710Z,62.74
2022-10-31T09:24:35.121Z,62.11
2022-10-31T09:27:37.291Z,62.25
2022-10-31T09:30:39.412Z,63.39
2022-10-31T09:33:40.875Z,62.60
2022-10-31T09:37:04.996Z,62.17
2022-10-31T09:40:09.867Z,61.85
2022-10-31T09:43:39.161Z,62.06
2022-10-31T09:47:09.479Z,62.19
2022-10-31T09:50:12.735Z,62.22
2022-10-31T09:53:26.192Z,62.55
2022-10-31T09:56:29.653Z,61.93
2022-10-31T09:59:36.925Z,62.66
2022-10-31T10:02:53.836Z,63.49
2022-10-31T10:06:20.397Z,63.57
2022-10-31T10:09:51.122Z,63.55
2022-10-31T10:13:21.201Z,63.81
2022-10-31T10:16:25.573Z,63.97
2022-10-31T10:19:35.911Z,64.53
2022-10-31T10:23:03.521Z,63.15
2022-10-31T10:26:37.187Z,62.78
2022-10-31T10:30:03.772Z,62.91
2022-10-31T10:33:40.386Z,63.24
2022-10-31T10:36:46.039Z,62.58
2022-10-31T10:39:53.304Z,63.08
2022-10-31T10:43:19.754Z,63.54
2022-10-31T10:46:46.011Z,63.85
2022-10-31T10:49:53.569Z,63.68
2022-10-31T10:53:01.944Z,62.60
2022-10-31T10:56:34.335Z,62.30
2022-10-31T10:59:36.080Z,62.46
2022-10-31T11:02:37.566Z,62.23
2022-10-31T11:05:52.121Z,62.01
2022-10-31T11:08:54.361Z,61.86
2022-10-31T11:11:56.897Z,61.36
2022-10-31T11:15:01.287Z,62.06
2022-10-31T11:18:02.734Z,62.07
2022-10-31T11:21:05.466Z,61.89
2022-10-31T11:24:09.903Z,61.19
2022-10-31T11:27:17.760Z,61.53
2022-10-31T11:30:19.231Z,61.70
2022-10-31T11:33:32.379Z,61.42
2022-10-31T11:36:40.013Z,62.66
2022-10-31T11:39:44.283Z,62.04
2022-10-31T11:42:46.970Z,62.07
2022-10-31T11:45:48.570Z,62.94
2022-10-31T11:48:53.324Z,62.27
2022-10-31T11:51:57.446Z,61.26
2022-10-31T11:55:23.499Z,61.27
2022-10-31T11:58:26.898Z,61.66
2022-10-31T12:01:31.019Z,62.17
2022-10-31T12:04:41.262Z,61.24
2022-10-31T12:07:43.352Z,61.83
2022-10-31T12:10:44.746Z,62.42
2022-10-31T12:14:34.286Z,62.20
2022-10-31T12:17:49.593Z,62.96
2022-10-31T12:21:09.756Z,63.16
2022-10-31T12:24:28.722Z,63.49
2022-10-31T12:27:48.346Z,63.00
2022-10-31T12:31:14.329Z,62.85
2022-10-31T12:34:49.230Z,62.17
2022-10-31T12:38:15.402Z,61.59
2022-10-31T12:41:22.278Z,61.87
2022-10-31T12:44:29.630Z,61.62
2022-10-31T12:47:57.698Z,60.49
2022-10-31T12:51:20.457Z,60.57
2022-10-31T12:54:36.288Z,60.64
2022-10-31T12:57:45.916Z,60.76
2022-10-31T13:00:51.924Z,60.15
2022-10-31T13:04:04.463Z,60.73
2022-10-31T13:07:16.277Z,59.85
2022-10-31T13:10:26.731Z,59.06
2022-10-31T13:13:53.216Z,59.63
2022-10-31T13:16:57.590Z,60.25
2022-10-31T13:20:14.404Z,60.58
2022-10-31T13:26:57.332Z,60.63
2022-10-31T13:30:06.771Z,60.85
2022-10-31T13:33:33.890Z,60.99
2022-10-31T13:36:43.896Z,60.90
2022-10-31T13:40:00.529Z,60.64
2022-10-31T13:43:27.251Z,61.41
2022-10-31T13:46:34.764Z,60.83
2022-10-31T13:49:36.189Z,61.07
2022-10-31T13:52:38.185Z,61.30
2022-10-31T13:55:45.107Z,61.32
2022-10-31T13:59:02.929Z,61.75
2022-10-31T14:02:16.784Z,62.30
2022-10-31T14:05:34.360Z,62.36
2022-10-31T14:08:43.500Z,62.78
2022-10-31T14:11:49.212Z,63.76
2022-10-31T14:14:53.942Z,63.35
2022-10-31T14:18:00.556Z,63.51
2022-10-31T14:21:02.516Z,63.71
2022-10-31T14:24:34.028Z,63.93
2022-10-31T14:27:46.436Z,63.88
2022-10-31T14:30:59.349Z,63.59
2022-10-31T14:34:02.458Z,63.75
2022-10-31T14:37:36.982Z,64.50
2022-10-31T14:44:15.264Z,64.85
2022-10-31T14:47:56.755Z,64.89
2022-10-31T14:51:00.370Z,65.61
2022-10-31T14:54:02.308Z,65.31
2022-10-31T14:57:07.482Z,65.18
2022-10-31T15:00:19.878Z,65.12
2022-10-31T15:04:21.737Z,64.59
2022-10-31T15:07:24.899Z,64.33
2022-10-31T15:10:33.075Z,64.11
2022-10-31T15:13:34.567Z,64.74
2022-10-31T15:16:44.574Z,64.69
2022-10-31T15:19:46.485Z,65.10
2022-10-31T15:22:49.247Z,64.87
2022-10-31T15:25:50.846Z,64.85
2022-10-31T15:29:15.395Z,64.91
2022-10-31T15:32:21.757Z,65.33
2022-10-31T15:35:26.756Z,64.85
2022-10-31T15:38:30.107Z,64.89
2022-10-31T15:41:37.174Z,65.31
2022-10-31T15:44:42.917Z,66.46
2022-10-31T15:47:55.668Z,65.68
2022-10-31T15:50:58.499Z,66.40
2022-10-31T15:54:00.956Z,66.70
2022-10-31T15:57:02.399Z,66.79
2022-10-31T16:00:04.332Z,66.66
2022-10-31T16:03:08.081Z,67.52
2022-10-31T16:06:21.343Z,67.26
2022-10-31T16:09:24.952Z,67.42
2022-10-31T16:12:35.833Z,67.77
2022-10-31T16:15:37.436Z,68.79
2022-10-31T16:18:41.961Z,68.13
2022-10-31T16:21:43.547Z,68.34
2022-10-31T16:24:56.756Z,68.53
2022-10-31T16:28:04.515Z,68.56
2022-10-31T16:31:14.920Z,67.93
2022-10-31T16:34:26.375Z,68.83
2022-10-31T16:37:28.897Z,69.10
2022-10-31T16:40:31.703Z,68.74
2022-10-31T16:43:34.762Z,69.42
2022-10-31T16:46:36.527Z,69.68
2022-10-31T16:49:38.055Z,70.04
2022-10-31T16:52:53.843Z,69.34
2022-10-31T16:56:04.543Z,69.35
2022-10-31T16:59:15.652Z,69.98
2022-10-31T17:02:18.300Z,69.93
2022-10-31T17:05:21.781Z,69.64
2022-10-31T17:08:24.785Z,71.00
2022-10-31T17:11:27.127Z,70.75
2022-10-31T17:14:29.123Z,70.99
2022-10-31T17:17:30.559Z,70.99
2022-10-31T17:20:32.514Z,70.74
2022-10-31T17:23:33.964Z,69.66
2022-10-31T17:26:35.354Z,69.69
2022-10-31T17:29:36.849Z,70.19
2022-10-31T17:32:38.694Z,70.89
2022-10-31T17:35:40.115Z,70.90
2022-10-31T17:38:41.550Z,71.52
2022-10-31T17:41:43.136Z,71.28
2022-10-31T17:44:44.553Z,71.14
2022-10-31T17:47:51.974Z,70.47
2022-10-31T17:50:53.410Z,70.18
2022-10-31T17:53:54.788Z,69.93
2022-10-31T17:56:56.402Z,70.35
2022-10-31T17:59:57.962Z,70.49
2022-10-31T18:02:59.950Z,72.13
2022-10-31T18:06:01.787Z,71.35
2022-10-31T18:09:04.640Z,71.30
2022-10-31T18:12:06.214Z,70.81
2022-10-31T18:15:07.956Z,70.13
2022-10-31T18:18:09.467Z,70.25
2022-10-31T18:21:11.015Z,70.03
2022-10-31T18:24:12.864Z,69.97
2022-10-31T18:27:14.363Z,69.59
2022-10-31T18:30:15.861Z,69.98
2022-10-31T18:33:17.270Z,70.15
2022-10-31T18:36:19.053Z,70.43
2022-10-31T18:39:20.483Z,70.29
2022-10-31T18:42:21.898Z,70.77
2022-10-31T18:45:33.984Z,70.65
2022-10-31T18:48:45.389Z,69.91
2022-10-31T18:51:46.775Z,70.47
2022-10-31T18:54:48.587Z,70.78
2022-10-31T18:57:50.006Z,71.02
2022-10-31T19:00:51.700Z,71.35
2022-10-31T19:03:55.592Z,72.24
2022-10-31T19:06:57.034Z,71.78
2022-10-31T19:09:58.992Z,71.53
2022-10-31T19:13:00.699Z,70.88
2022-10-31T19:16:13.993Z,71.80
2022-10-31T19:19:15.573Z,70.42
2022-10-31T19:22:17.039Z,70.37
2022-10-31T19:25:18.543Z,72.68
2022-10-31T19:28:19.972Z,73.34
2022-10-31T19:31:21.529Z,71.58
2022-10-31T19:34:22.924Z,71.86
2022-10-31T19:37:24.465Z,71.34
2022-10-31T19:40:25.846Z,72.46
2022-10-31T19:43:28.089Z,71.54
2022-10-31T19:49:51.074Z,72.11
2022-10-31T19:52:52.484Z,70.94
2022-10-31T19:55:53.908Z,69.85
2022-10-31T19:58:57.128Z,70.41
2022-10-31T20:01:58.758Z,70.80
2022-10-31T20:05:01.770Z,70.31
2022-10-31T20:08:03.487Z,71.02
2022-10-31T20:11:05.085Z,72.23
2022-10-31T20:14:08.189Z,71.21
2022-10-31T20:17:09.855Z,71.60
2022-10-31T20:20:11.478Z,71.49
2022-10-31T20:23:13.010Z,71.18
2022-10-31T20:26:17.715Z,71.21
2022-10-31T20:29:19.559Z,70.50
2022-10-31T20:32:21.347Z,70.48
2022-10-31T20:35:22.907Z,70.33
2022-10-31T20:38:24.350Z,70.39
2022-10-31T20:41:25.889Z,71.66
2022-10-31T20:44:27.664Z,70.97
2022-10-31T20:47:29.156Z,70.32
2022-10-31T20:50:30.574Z,70.89
2022-10-31T20:53:32.643Z,70.75
2022-10-31T20:56:34.092Z,70.08
2022-10-31T20:59:35.792Z,69.91
2022-10-31T21:02:43.054Z,69.61
2022-10-31T21:05:56.515Z,69.56
2022-10-31T21:08:58.330Z,69.40
2022-10-31T21:11:59.712Z,69.83
2022-10-31T21:15:01.117Z,69.78
2022-10-31T21:18:02.591Z,69.29
2022-10-31T21:21:19.930Z,69.29
2022-10-31T21:24:21.824Z,70.04
2022-10-31T21:27:23.863Z,70.70
2022-10-31T21:30:25.275Z,70.60
2022-10-31T21:33:26.822Z,72.17
2022-10-31T21:36:28.390Z,71.07
2022-10-31T21:39:29.776Z,70.00
2022-10-31T21:42:33.039Z,69.11
2022-10-31T21:45:34.595Z,68.49
2022-10-31T21:48:42.021Z,67.81
2022-10-31T21:51:44.130Z,67.60
2022-10-31T21:54:45.649Z,67.49
2022-10-31T21:57:47.195Z,67.80
2022-10-31T22:00:48.743Z,67.59
2022-10-31T22:03:50.224Z,67.17
2022-10-31T22:06:51.734Z,66.70
2022-10-31T22:09:53.257Z,66.65
2022-10-31T22:12:54.645Z,66.18
2022-10-31T22:16:00.391Z,65.82
2022-10-31T22:19:05.681Z,65.88
2022-10-31T22:22:07.412Z,66.14
2022-10-31T22:25:09.287Z,66.58
2022-10-31T22:28:10.800Z,67.48
2022-10-31T22:31:16.072Z,67.28
2022-10-31T22:34:18.799Z,67.30
2022-10-31T22:37:20.278Z,66.74
2022-10-31T22:40:21.708Z,66.53
2022-10-31T22:43:23.150Z,66.39
2022-10-31T22:46:27.202Z,67.15
2022-10-31T22:49:29.884Z,66.97
2022-10-31T22:52:31.597Z,66.37
2022-10-31T22:55:34.862Z,66.25
2022-10-31T22:58:36.623Z,66.17
2022-10-31T23:01:38.315Z,65.37
2022-10-31T23:04:40.070Z,64.78
2022-10-31T23:07:41.514Z,64.60
2022-10-31T23:10:44.188Z,64.34
2022-10-31T23:14:06.175Z,64.63
2022-10-31T23:17:07.668Z,64.46
2022-10-31T23:20:09.422Z,63.94
2022-10-31T23:23:10.830Z,63.42
2022-10-31T23:26:31.125Z,63.43
2022-10-31T23:29:34.543Z,63.22
2022-10-31T23:32:37.773Z,63.86
2022-10-31T23:35:39.278Z,64.31
2022-10-31T23:38:40.722Z,64.25
2022-10-31T23:41:42.173Z,64.31
2022-10-31T23:44:43.819Z,64.80
2022-10-31T23:47:45.220Z,64.03
2022-10-31T23:50:47.714Z,64.44
2022-10-31T23:53:49.132Z,65.51
2022-10-31T23:56:50.780Z,64.74
2022-10-31T23:59:52.162Z,65.17
